sensor_id;sensor_type;location;lat;lon;timestamp;P1;durP1;ratioP1;P2;durP2;ratioP2
71298;SDS011;59083;47.974;21.722;2022-08-02T00:01:34;10.98;;;6.72;;
71298;SDS011;59083;47.974;21.722;2022-08-02T00:04:36;13.62;;;7.22;;
71298;SDS011;59083;47.974;21.722;2022-08-02T00:07:37;11.00;;;7.40;;
71298;SDS011;59083;47.974;21.722;2022-08-02T00:10:39;11.45;;;6.72;;
71298;SDS011;59083;47.974;21.722;2022-08-02T00:13:40;11.50;;;7.20;;
71298;SDS011;59083;47.974;21.722;2022-08-02T00:16:41;11.98;;;6.93;;
71298;SDS011;59083;47.974;21.722;2022-08-02T00:19:43;11.20;;;6.70;;
71298;SDS011;59083;47.974;21.722;2022-08-02T00:22:45;14.23;;;6.40;;
71298;SDS011;59083;47.974;21.722;2022-08-02T00:25:46;12.05;;;7.10;;
71298;SDS011;59083;47.974;21.722;2022-08-02T00:28:47;9.27;;;6.60;;
71298;SDS011;59083;47.974;21.722;2022-08-02T00:31:48;10.45;;;6.85;;
71298;SDS011;59083;47.974;21.722;2022-08-02T00:34:50;12.00;;;7.00;;
71298;SDS011;59083;47.974;21.722;2022-08-02T00:37:51;10.93;;;7.30;;
71298;SDS011;59083;47.974;21.722;2022-08-02T00:40:52;10.77;;;6.57;;
71298;SDS011;59083;47.974;21.722;2022-08-02T00:43:54;11.60;;;7.05;;
71298;SDS011;59083;47.974;21.722;2022-08-02T00:46:55;9.68;;;6.43;;
71298;SDS011;59083;47.974;21.722;2022-08-02T00:49:56;11.43;;;7.40;;
71298;SDS011;59083;47.974;21.722;2022-08-02T00:52:58;11.40;;;7.30;;
71298;SDS011;59083;47.974;21.722;2022-08-02T00:56:00;10.23;;;6.70;;
71298;SDS011;59083;47.974;21.722;2022-08-02T00:59:02;10.15;;;6.72;;
71298;SDS011;59083;47.974;21.722;2022-08-02T01:02:04;11.25;;;7.18;;
71298;SDS011;59083;47.974;21.722;2022-08-02T01:05:05;10.07;;;6.60;;
71298;SDS011;59083;47.974;21.722;2022-08-02T01:08:07;9.70;;;6.90;;
71298;SDS011;59083;47.974;21.722;2022-08-02T01:11:08;10.93;;;6.80;;
71298;SDS011;59083;47.974;21.722;2022-08-02T01:14:11;11.20;;;7.43;;
71298;SDS011;59083;47.974;21.722;2022-08-02T01:27:28;13.23;;;7.97;;
71298;SDS011;59083;47.974;21.722;2022-08-02T01:30:40;14.32;;;8.30;;
71298;SDS011;59083;47.974;21.722;2022-08-02T01:33:46;10.52;;;7.90;;
71298;SDS011;59083;47.974;21.722;2022-08-02T01:37:01;11.32;;;7.60;;
71298;SDS011;59083;47.974;21.722;2022-08-02T01:40:08;13.13;;;7.90;;
71298;SDS011;59083;47.974;21.722;2022-08-02T01:43:12;10.82;;;7.50;;
71298;SDS011;59083;47.974;21.722;2022-08-02T01:46:14;12.02;;;7.30;;
71298;SDS011;59083;47.974;21.722;2022-08-02T01:49:18;12.43;;;7.80;;
71298;SDS011;59083;47.974;21.722;2022-08-02T01:52:22;12.37;;;8.13;;
71298;SDS011;59083;47.974;21.722;2022-08-02T01:55:28;11.17;;;7.83;;
71298;SDS011;59083;47.974;21.722;2022-08-02T01:58:33;13.20;;;7.80;;
71298;SDS011;59083;47.974;21.722;2022-08-02T02:01:37;12.48;;;7.93;;
71298;SDS011;59083;47.974;21.722;2022-08-02T02:04:40;11.68;;;7.65;;
71298;SDS011;59083;47.974;21.722;2022-08-02T02:07:44;11.77;;;8.00;;
71298;SDS011;59083;47.974;21.722;2022-08-02T02:10:46;13.50;;;7.40;;
71298;SDS011;59083;47.974;21.722;2022-08-02T02:13:47;12.57;;;8.20;;
71298;SDS011;59083;47.974;21.722;2022-08-02T02:16:50;13.25;;;8.38;;
71298;SDS011;59083;47.974;21.722;2022-08-02T02:19:53;12.52;;;8.18;;
71298;SDS011;59083;47.974;21.722;2022-08-02T02:22:56;13.15;;;7.95;;
71298;SDS011;59083;47.974;21.722;2022-08-02T02:25:58;13.17;;;8.07;;
71298;SDS011;59083;47.974;21.722;2022-08-02T02:29:02;13.82;;;8.30;;
71298;SDS011;59083;47.974;21.722;2022-08-02T02:32:05;12.15;;;7.97;;
71298;SDS011;59083;47.974;21.722;2022-08-02T02:35:07;12.85;;;7.78;;
71298;SDS011;59083;47.974;21.722;2022-08-02T02:38:11;14.52;;;8.43;;
71298;SDS011;59083;47.974;21.722;2022-08-02T02:41:14;13.20;;;8.10;;
71298;SDS011;59083;47.974;21.722;2022-08-02T02:44:17;11.57;;;8.02;;
71298;SDS011;59083;47.974;21.722;2022-08-02T02:47:21;16.67;;;7.93;;
71298;SDS011;59083;47.974;21.722;2022-08-02T02:50:23;12.25;;;7.50;;
71298;SDS011;59083;47.974;21.722;2022-08-02T02:53:25;11.23;;;7.55;;
71298;SDS011;59083;47.974;21.722;2022-08-02T02:56:28;12.10;;;8.07;;
71298;SDS011;59083;47.974;21.722;2022-08-02T02:59:29;11.02;;;7.55;;
71298;SDS011;59083;47.974;21.722;2022-08-02T03:02:32;11.57;;;7.62;;
71298;SDS011;59083;47.974;21.722;2022-08-02T03:05:36;11.57;;;7.00;;
71298;SDS011;59083;47.974;21.722;2022-08-02T03:08:37;11.18;;;7.45;;
71298;SDS011;59083;47.974;21.722;2022-08-02T03:11:39;10.60;;;7.07;;
71298;SDS011;59083;47.974;21.722;2022-08-02T03:14:42;13.15;;;7.15;;
71298;SDS011;59083;47.974;21.722;2022-08-02T03:17:44;10.65;;;7.20;;
71298;SDS011;59083;47.974;21.722;2022-08-02T03:20:45;12.68;;;7.65;;
71298;SDS011;59083;47.974;21.722;2022-08-02T03:23:48;11.90;;;7.95;;
71298;SDS011;59083;47.974;21.722;2022-08-02T03:26:50;11.70;;;7.80;;
71298;SDS011;59083;47.974;21.722;2022-08-02T03:29:51;14.93;;;7.68;;
71298;SDS011;59083;47.974;21.722;2022-08-02T03:32:52;11.48;;;7.57;;
71298;SDS011;59083;47.974;21.722;2022-08-02T03:35:55;12.82;;;7.57;;
71298;SDS011;59083;47.974;21.722;2022-08-02T03:38:59;14.85;;;7.10;;
71298;SDS011;59083;47.974;21.722;2022-08-02T03:42:02;11.00;;;7.27;;
71298;SDS011;59083;47.974;21.722;2022-08-02T03:45:04;12.82;;;7.65;;
71298;SDS011;59083;47.974;21.722;2022-08-02T03:48:09;11.98;;;7.45;;
71298;SDS011;59083;47.974;21.722;2022-08-02T03:51:11;11.52;;;7.18;;
71298;SDS011;59083;47.974;21.722;2022-08-02T03:54:13;11.88;;;7.72;;
71298;SDS011;59083;47.974;21.722;2022-08-02T03:57:17;13.80;;;9.73;;
71298;SDS011;59083;47.974;21.722;2022-08-02T04:00:19;13.07;;;7.87;;
71298;SDS011;59083;47.974;21.722;2022-08-02T04:03:22;18.33;;;7.82;;
71298;SDS011;59083;47.974;21.722;2022-08-02T04:06:24;12.80;;;7.87;;
71298;SDS011;59083;47.974;21.722;2022-08-02T04:09:25;10.80;;;7.10;;
71298;SDS011;59083;47.974;21.722;2022-08-02T04:12:26;9.37;;;5.87;;
71298;SDS011;59083;47.974;21.722;2022-08-02T04:15:28;10.30;;;6.43;;
71298;SDS011;59083;47.974;21.722;2022-08-02T04:18:31;13.13;;;7.18;;
71298;SDS011;59083;47.974;21.722;2022-08-02T04:21:39;15.32;;;6.30;;
71298;SDS011;59083;47.974;21.722;2022-08-02T04:24:42;8.15;;;5.85;;
71298;SDS011;59083;47.974;21.722;2022-08-02T04:27:50;12.07;;;6.23;;
71298;SDS011;59083;47.974;21.722;2022-08-02T04:30:52;10.15;;;5.37;;
71298;SDS011;59083;47.974;21.722;2022-08-02T04:33:55;10.93;;;5.68;;
71298;SDS011;59083;47.974;21.722;2022-08-02T04:36:57;10.20;;;5.32;;
71298;SDS011;59083;47.974;21.722;2022-08-02T04:39:59;9.10;;;5.35;;
71298;SDS011;59083;47.974;21.722;2022-08-02T04:43:01;11.60;;;5.43;;
71298;SDS011;59083;47.974;21.722;2022-08-02T04:46:02;19.98;;;5.40;;
71298;SDS011;59083;47.974;21.722;2022-08-02T04:49:03;13.68;;;8.63;;
71298;SDS011;59083;47.974;21.722;2022-08-02T04:52:05;11.00;;;6.78;;
71298;SDS011;59083;47.974;21.722;2022-08-02T04:55:06;9.02;;;5.57;;
71298;SDS011;59083;47.974;21.722;2022-08-02T04:58:08;9.13;;;5.40;;
71298;SDS011;59083;47.974;21.722;2022-08-02T05:01:09;100.10;;;11.77;;
71298;SDS011;59083;47.974;21.722;2022-08-02T05:04:11;11.38;;;6.25;;
71298;SDS011;59083;47.974;21.722;2022-08-02T05:07:12;7.45;;;5.40;;
71298;SDS011;59083;47.974;21.722;2022-08-02T05:10:13;12.77;;;6.03;;
71298;SDS011;59083;47.974;21.722;2022-08-02T05:13:14;11.03;;;5.63;;
71298;SDS011;59083;47.974;21.722;2022-08-02T05:16:16;12.15;;;5.15;;
71298;SDS011;59083;47.974;21.722;2022-08-02T05:22:53;9.60;;;5.25;;
71298;SDS011;59083;47.974;21.722;2022-08-02T05:25:54;10.13;;;4.82;;
71298;SDS011;59083;47.974;21.722;2022-08-02T05:28:56;8.10;;;4.83;;
71298;SDS011;59083;47.974;21.722;2022-08-02T05:31:57;9.27;;;4.85;;
71298;SDS011;59083;47.974;21.722;2022-08-02T05:35:01;7.40;;;4.55;;
71298;SDS011;59083;47.974;21.722;2022-08-02T05:38:03;9.15;;;4.75;;
71298;SDS011;59083;47.974;21.722;2022-08-02T05:41:05;9.88;;;4.60;;
71298;SDS011;59083;47.974;21.722;2022-08-02T05:44:06;8.10;;;4.20;;
71298;SDS011;59083;47.974;21.722;2022-08-02T05:47:07;7.87;;;3.83;;
71298;SDS011;59083;47.974;21.722;2022-08-02T05:50:09;9.90;;;4.07;;
71298;SDS011;59083;47.974;21.722;2022-08-02T05:53:34;7.50;;;4.10;;
71298;SDS011;59083;47.974;21.722;2022-08-02T05:56:50;8.95;;;4.70;;
71298;SDS011;59083;47.974;21.722;2022-08-02T06:00:07;10.43;;;5.23;;
71298;SDS011;59083;47.974;21.722;2022-08-02T06:03:25;9.07;;;4.18;;
71298;SDS011;59083;47.974;21.722;2022-08-02T06:06:33;10.88;;;5.00;;
71298;SDS011;59083;47.974;21.722;2022-08-02T06:09:35;9.73;;;4.82;;
71298;SDS011;59083;47.974;21.722;2022-08-02T06:12:41;6.82;;;4.43;;
71298;SDS011;59083;47.974;21.722;2022-08-02T06:15:50;10.57;;;5.00;;
71298;SDS011;59083;47.974;21.722;2022-08-02T06:18:52;8.40;;;4.82;;
71298;SDS011;59083;47.974;21.722;2022-08-02T06:21:54;7.10;;;4.53;;
71298;SDS011;59083;47.974;21.722;2022-08-02T06:24:56;9.45;;;4.78;;
71298;SDS011;59083;47.974;21.722;2022-08-02T06:27:59;9.77;;;4.80;;
71298;SDS011;59083;47.974;21.722;2022-08-02T06:31:02;9.80;;;4.60;;
71298;SDS011;59083;47.974;21.722;2022-08-02T06:34:05;11.18;;;4.40;;
71298;SDS011;59083;47.974;21.722;2022-08-02T06:40:30;6.45;;;4.50;;
71298;SDS011;59083;47.974;21.722;2022-08-02T06:44:00;8.82;;;5.28;;
71298;SDS011;59083;47.974;21.722;2022-08-02T06:47:02;8.23;;;5.10;;
71298;SDS011;59083;47.974;21.722;2022-08-02T06:50:04;9.23;;;5.30;;
71298;SDS011;59083;47.974;21.722;2022-08-02T06:53:05;8.40;;;4.95;;
71298;SDS011;59083;47.974;21.722;2022-08-02T06:56:08;9.63;;;5.30;;
71298;SDS011;59083;47.974;21.722;2022-08-02T06:59:10;10.45;;;5.87;;
71298;SDS011;59083;47.974;21.722;2022-08-02T07:02:11;8.37;;;4.90;;
71298;SDS011;59083;47.974;21.722;2022-08-02T07:05:12;10.15;;;5.35;;
71298;SDS011;59083;47.974;21.722;2022-08-02T07:08:14;8.07;;;5.25;;
71298;SDS011;59083;47.974;21.722;2022-08-02T07:11:15;8.65;;;5.53;;
71298;SDS011;59083;47.974;21.722;2022-08-02T07:14:17;8.88;;;5.62;;
71298;SDS011;59083;47.974;21.722;2022-08-02T07:17:18;8.53;;;5.47;;
71298;SDS011;59083;47.974;21.722;2022-08-02T07:20:19;11.27;;;5.70;;
71298;SDS011;59083;47.974;21.722;2022-08-02T07:23:20;9.90;;;5.35;;
71298;SDS011;59083;47.974;21.722;2022-08-02T07:26:22;15.73;;;5.43;;
71298;SDS011;59083;47.974;21.722;2022-08-02T07:29:23;9.32;;;5.45;;
71298;SDS011;59083;47.974;21.722;2022-08-02T07:32:26;10.43;;;5.80;;
71298;SDS011;59083;47.974;21.722;2022-08-02T07:35:29;9.38;;;5.82;;
71298;SDS011;59083;47.974;21.722;2022-08-02T07:38:31;10.50;;;5.70;;
71298;SDS011;59083;47.974;21.722;2022-08-02T07:41:32;10.30;;;5.60;;
71298;SDS011;59083;47.974;21.722;2022-08-02T07:44:33;8.75;;;5.55;;
71298;SDS011;59083;47.974;21.722;2022-08-02T07:47:35;10.67;;;5.60;;
71298;SDS011;59083;47.974;21.722;2022-08-02T07:50:38;8.68;;;5.37;;
71298;SDS011;59083;47.974;21.722;2022-08-02T07:53:39;11.07;;;6.40;;
71298;SDS011;59083;47.974;21.722;2022-08-02T07:56:41;10.90;;;5.28;;
71298;SDS011;59083;47.974;21.722;2022-08-02T07:59:42;8.40;;;5.12;;
71298;SDS011;59083;47.974;21.722;2022-08-02T08:02:43;10.27;;;5.50;;
71298;SDS011;59083;47.974;21.722;2022-08-02T08:05:46;8.43;;;5.15;;
71298;SDS011;59083;47.974;21.722;2022-08-02T08:08:47;8.20;;;5.18;;
71298;SDS011;59083;47.974;21.722;2022-08-02T08:11:49;10.93;;;6.35;;
71298;SDS011;59083;47.974;21.722;2022-08-02T08:14:50;7.45;;;5.30;;
71298;SDS011;59083;47.974;21.722;2022-08-02T08:17:51;8.33;;;5.47;;
71298;SDS011;59083;47.974;21.722;2022-08-02T08:20:52;8.88;;;5.10;;
71298;SDS011;59083;47.974;21.722;2022-08-02T08:23:54;9.98;;;5.43;;
71298;SDS011;59083;47.974;21.722;2022-08-02T08:26:55;11.32;;;5.18;;
71298;SDS011;59083;47.974;21.722;2022-08-02T08:29:57;11.60;;;5.10;;
71298;SDS011;59083;47.974;21.722;2022-08-02T08:32:58;9.50;;;4.90;;
71298;SDS011;59083;47.974;21.722;2022-08-02T08:35:59;7.78;;;4.97;;
71298;SDS011;59083;47.974;21.722;2022-08-02T08:39:00;8.63;;;5.20;;
71298;SDS011;59083;47.974;21.722;2022-08-02T08:42:04;9.98;;;5.15;;
71298;SDS011;59083;47.974;21.722;2022-08-02T08:45:07;11.68;;;6.70;;
71298;SDS011;59083;47.974;21.722;2022-08-02T08:48:09;8.70;;;4.93;;
71298;SDS011;59083;47.974;21.722;2022-08-02T08:51:18;9.05;;;4.93;;
71298;SDS011;59083;47.974;21.722;2022-08-02T08:54:22;9.32;;;4.65;;
71298;SDS011;59083;47.974;21.722;2022-08-02T08:57:27;9.25;;;5.12;;
71298;SDS011;59083;47.974;21.722;2022-08-02T09:00:31;8.93;;;5.05;;
71298;SDS011;59083;47.974;21.722;2022-08-02T09:03:33;9.23;;;4.73;;
71298;SDS011;59083;47.974;21.722;2022-08-02T09:06:35;9.25;;;4.72;;
71298;SDS011;59083;47.974;21.722;2022-08-02T09:09:38;8.38;;;4.78;;
71298;SDS011;59083;47.974;21.722;2022-08-02T09:12:39;8.65;;;4.90;;
71298;SDS011;59083;47.974;21.722;2022-08-02T09:15:41;7.50;;;5.25;;
71298;SDS011;59083;47.974;21.722;2022-08-02T09:18:44;7.43;;;5.23;;
71298;SDS011;59083;47.974;21.722;2022-08-02T09:21:50;12.80;;;5.65;;
71298;SDS011;59083;47.974;21.722;2022-08-02T09:24:52;9.73;;;5.82;;
71298;SDS011;59083;47.974;21.722;2022-08-02T09:27:53;10.02;;;5.70;;
71298;SDS011;59083;47.974;21.722;2022-08-02T09:30:56;10.65;;;6.03;;
71298;SDS011;59083;47.974;21.722;2022-08-02T09:34:02;9.30;;;5.60;;
71298;SDS011;59083;47.974;21.722;2022-08-02T09:37:03;11.25;;;5.90;;
71298;SDS011;59083;47.974;21.722;2022-08-02T09:40:05;10.82;;;5.90;;
71298;SDS011;59083;47.974;21.722;2022-08-02T09:43:10;9.88;;;6.03;;
71298;SDS011;59083;47.974;21.722;2022-08-02T09:46:16;11.10;;;6.45;;
71298;SDS011;59083;47.974;21.722;2022-08-02T09:49:19;10.87;;;6.47;;
71298;SDS011;59083;47.974;21.722;2022-08-02T09:52:28;11.38;;;6.03;;
71298;SDS011;59083;47.974;21.722;2022-08-02T09:55:30;10.05;;;7.53;;
71298;SDS011;59083;47.974;21.722;2022-08-02T09:58:31;12.27;;;7.50;;
71298;SDS011;59083;47.974;21.722;2022-08-02T10:01:38;10.50;;;6.40;;
71298;SDS011;59083;47.974;21.722;2022-08-02T10:04:41;13.30;;;6.07;;
71298;SDS011;59083;47.974;21.722;2022-08-02T10:07:43;10.27;;;6.05;;
71298;SDS011;59083;47.974;21.722;2022-08-02T10:10:44;8.80;;;6.43;;
71298;SDS011;59083;47.974;21.722;2022-08-02T10:13:46;15.60;;;6.62;;
71298;SDS011;59083;47.974;21.722;2022-08-02T10:16:48;8.02;;;6.10;;
71298;SDS011;59083;47.974;21.722;2022-08-02T10:19:49;10.73;;;6.03;;
71298;SDS011;59083;47.974;21.722;2022-08-02T10:22:51;9.88;;;6.07;;
71298;SDS011;59083;47.974;21.722;2022-08-02T10:25:55;11.77;;;8.55;;
71298;SDS011;59083;47.974;21.722;2022-08-02T10:28:57;10.70;;;6.30;;
71298;SDS011;59083;47.974;21.722;2022-08-02T10:32:05;9.95;;;6.18;;
71298;SDS011;59083;47.974;21.722;2022-08-02T10:35:14;8.47;;;5.67;;
71298;SDS011;59083;47.974;21.722;2022-08-02T10:38:17;9.10;;;5.72;;
71298;SDS011;59083;47.974;21.722;2022-08-02T10:41:38;13.30;;;6.00;;
71298;SDS011;59083;47.974;21.722;2022-08-02T10:44:40;8.10;;;6.07;;
71298;SDS011;59083;47.974;21.722;2022-08-02T10:51:14;9.33;;;5.67;;
71298;SDS011;59083;47.974;21.722;2022-08-02T10:54:19;11.95;;;6.62;;
71298;SDS011;59083;47.974;21.722;2022-08-02T10:57:22;10.18;;;6.55;;
71298;SDS011;59083;47.974;21.722;2022-08-02T11:00:28;13.93;;;8.93;;
71298;SDS011;59083;47.974;21.722;2022-08-02T11:06:31;9.50;;;6.23;;
71298;SDS011;59083;47.974;21.722;2022-08-02T11:09:32;10.27;;;6.80;;
71298;SDS011;59083;47.974;21.722;2022-08-02T11:12:34;11.57;;;6.60;;
71298;SDS011;59083;47.974;21.722;2022-08-02T11:16:01;11.07;;;6.47;;
71298;SDS011;59083;47.974;21.722;2022-08-02T11:19:07;10.20;;;6.60;;
71298;SDS011;59083;47.974;21.722;2022-08-02T11:22:12;9.57;;;6.70;;
71298;SDS011;59083;47.974;21.722;2022-08-02T11:28:26;9.50;;;7.00;;
71298;SDS011;59083;47.974;21.722;2022-08-02T11:31:28;9.25;;;6.22;;
71298;SDS011;59083;47.974;21.722;2022-08-02T11:34:37;13.32;;;7.18;;
71298;SDS011;59083;47.974;21.722;2022-08-02T11:37:40;10.47;;;6.60;;
71298;SDS011;59083;47.974;21.722;2022-08-02T11:40:43;8.15;;;6.37;;
71298;SDS011;59083;47.974;21.722;2022-08-02T11:43:45;10.73;;;6.65;;
71298;SDS011;59083;47.974;21.722;2022-08-02T11:50:15;10.85;;;6.90;;
71298;SDS011;59083;47.974;21.722;2022-08-02T11:53:17;10.17;;;6.67;;
71298;SDS011;59083;47.974;21.722;2022-08-02T11:56:26;22.40;;;14.32;;
71298;SDS011;59083;47.974;21.722;2022-08-02T11:59:28;13.35;;;7.80;;
71298;SDS011;59083;47.974;21.722;2022-08-02T12:02:30;12.25;;;7.50;;
71298;SDS011;59083;47.974;21.722;2022-08-02T12:05:32;8.75;;;7.03;;
71298;SDS011;59083;47.974;21.722;2022-08-02T12:08:35;9.50;;;7.37;;
71298;SDS011;59083;47.974;21.722;2022-08-02T12:11:37;14.50;;;7.85;;
71298;SDS011;59083;47.974;21.722;2022-08-02T12:14:41;9.77;;;7.65;;
71298;SDS011;59083;47.974;21.722;2022-08-02T12:17:45;10.65;;;7.40;;
71298;SDS011;59083;47.974;21.722;2022-08-02T12:21:22;8.63;;;7.22;;
71298;SDS011;59083;47.974;21.722;2022-08-02T12:24:26;11.20;;;7.10;;
71298;SDS011;59083;47.974;21.722;2022-08-02T12:30:29;11.30;;;7.10;;
71298;SDS011;59083;47.974;21.722;2022-08-02T12:33:44;11.57;;;7.37;;
71298;SDS011;59083;47.974;21.722;2022-08-02T12:37:05;9.88;;;6.90;;
71298;SDS011;59083;47.974;21.722;2022-08-02T12:40:17;10.20;;;7.43;;
71298;SDS011;59083;47.974;21.722;2022-08-02T12:43:32;9.70;;;7.82;;
71298;SDS011;59083;47.974;21.722;2022-08-02T12:46:42;9.32;;;7.55;;
71298;SDS011;59083;47.974;21.722;2022-08-02T12:49:44;10.15;;;7.43;;
71298;SDS011;59083;47.974;21.722;2022-08-02T12:52:46;10.02;;;6.95;;
71298;SDS011;59083;47.974;21.722;2022-08-02T12:55:49;8.30;;;6.30;;
71298;SDS011;59083;47.974;21.722;2022-08-02T12:58:52;8.90;;;6.78;;
71298;SDS011;59083;47.974;21.722;2022-08-02T13:01:53;9.82;;;6.60;;
71298;SDS011;59083;47.974;21.722;2022-08-02T13:05:01;9.35;;;7.10;;
71298;SDS011;59083;47.974;21.722;2022-08-02T13:08:03;8.93;;;6.93;;
71298;SDS011;59083;47.974;21.722;2022-08-02T13:11:05;8.90;;;6.53;;
71298;SDS011;59083;47.974;21.722;2022-08-02T13:14:06;9.70;;;7.07;;
71298;SDS011;59083;47.974;21.722;2022-08-02T13:17:07;9.52;;;6.95;;
71298;SDS011;59083;47.974;21.722;2022-08-02T13:20:09;9.90;;;6.60;;
71298;SDS011;59083;47.974;21.722;2022-08-02T13:23:11;20.83;;;14.00;;
71298;SDS011;59083;47.974;21.722;2022-08-02T13:26:13;10.37;;;7.27;;
71298;SDS011;59083;47.974;21.722;2022-08-02T13:29:14;9.27;;;6.78;;
71298;SDS011;59083;47.974;21.722;2022-08-02T13:32:15;9.20;;;6.22;;
71298;SDS011;59083;47.974;21.722;2022-08-02T13:35:16;9.82;;;6.95;;
71298;SDS011;59083;47.974;21.722;2022-08-02T13:38:18;9.40;;;6.35;;
71298;SDS011;59083;47.974;21.722;2022-08-02T13:41:19;9.50;;;6.73;;
71298;SDS011;59083;47.974;21.722;2022-08-02T13:44:21;9.07;;;6.57;;
71298;SDS011;59083;47.974;21.722;2022-08-02T13:47:22;11.15;;;6.43;;
71298;SDS011;59083;47.974;21.722;2022-08-02T13:50:23;10.07;;;5.78;;
71298;SDS011;59083;47.974;21.722;2022-08-02T13:53:24;8.73;;;6.00;;
71298;SDS011;59083;47.974;21.722;2022-08-02T13:56:26;9.23;;;5.67;;
71298;SDS011;59083;47.974;21.722;2022-08-02T13:59:27;8.48;;;5.47;;
71298;SDS011;59083;47.974;21.722;2022-08-02T14:02:29;6.90;;;5.00;;
71298;SDS011;59083;47.974;21.722;2022-08-02T14:05:30;6.80;;;4.90;;
71298;SDS011;59083;47.974;21.722;2022-08-02T14:08:31;7.40;;;4.95;;
71298;SDS011;59083;47.974;21.722;2022-08-02T14:11:33;9.20;;;5.50;;
71298;SDS011;59083;47.974;21.722;2022-08-02T14:14:34;7.75;;;5.50;;
71298;SDS011;59083;47.974;21.722;2022-08-02T14:17:35;7.78;;;5.43;;
71298;SDS011;59083;47.974;21.722;2022-08-02T14:20:36;8.15;;;5.62;;
71298;SDS011;59083;47.974;21.722;2022-08-02T14:23:40;11.10;;;6.03;;
71298;SDS011;59083;47.974;21.722;2022-08-02T14:26:41;8.27;;;6.00;;
71298;SDS011;59083;47.974;21.722;2022-08-02T14:29:42;7.75;;;5.62;;
71298;SDS011;59083;47.974;21.722;2022-08-02T14:32:43;7.82;;;5.75;;
71298;SDS011;59083;47.974;21.722;2022-08-02T14:35:45;9.13;;;6.57;;
71298;SDS011;59083;47.974;21.722;2022-08-02T14:38:46;7.70;;;5.55;;
71298;SDS011;59083;47.974;21.722;2022-08-02T14:41:47;8.07;;;5.50;;
71298;SDS011;59083;47.974;21.722;2022-08-02T14:44:48;7.37;;;5.30;;
71298;SDS011;59083;47.974;21.722;2022-08-02T14:47:50;8.90;;;5.75;;
71298;SDS011;59083;47.974;21.722;2022-08-02T14:50:51;7.20;;;5.40;;
71298;SDS011;59083;47.974;21.722;2022-08-02T14:53:53;7.53;;;5.40;;
71298;SDS011;59083;47.974;21.722;2022-08-02T14:56:54;7.47;;;5.47;;
71298;SDS011;59083;47.974;21.722;2022-08-02T14:59:56;8.63;;;5.68;;
71298;SDS011;59083;47.974;21.722;2022-08-02T15:03:00;7.50;;;5.40;;
71298;SDS011;59083;47.974;21.722;2022-08-02T15:06:01;8.07;;;5.75;;
71298;SDS011;59083;47.974;21.722;2022-08-02T15:09:02;7.37;;;5.22;;
71298;SDS011;59083;47.974;21.722;2022-08-02T15:12:04;7.00;;;5.13;;
71298;SDS011;59083;47.974;21.722;2022-08-02T15:15:05;8.35;;;5.72;;
71298;SDS011;59083;47.974;21.722;2022-08-02T15:18:07;8.18;;;5.40;;
71298;SDS011;59083;47.974;21.722;2022-08-02T15:21:08;10.10;;;5.50;;
71298;SDS011;59083;47.974;21.722;2022-08-02T15:24:10;10.18;;;5.35;;
71298;SDS011;59083;47.974;21.722;2022-08-02T15:27:12;9.93;;;5.30;;
71298;SDS011;59083;47.974;21.722;2022-08-02T15:30:13;10.35;;;5.68;;
71298;SDS011;59083;47.974;21.722;2022-08-02T15:33:15;8.32;;;5.47;;
71298;SDS011;59083;47.974;21.722;2022-08-02T15:36:16;8.13;;;5.68;;
71298;SDS011;59083;47.974;21.722;2022-08-02T15:39:17;10.80;;;6.85;;
71298;SDS011;59083;47.974;21.722;2022-08-02T15:42:19;9.40;;;5.60;;
71298;SDS011;59083;47.974;21.722;2022-08-02T15:45:20;8.00;;;5.70;;
71298;SDS011;59083;47.974;21.722;2022-08-02T15:48:21;8.60;;;6.25;;
71298;SDS011;59083;47.974;21.722;2022-08-02T15:51:22;8.27;;;5.62;;
71298;SDS011;59083;47.974;21.722;2022-08-02T15:54:24;8.82;;;5.87;;
71298;SDS011;59083;47.974;21.722;2022-08-02T15:57:25;8.77;;;5.87;;
71298;SDS011;59083;47.974;21.722;2022-08-02T16:00:27;8.85;;;5.90;;
71298;SDS011;59083;47.974;21.722;2022-08-02T16:03:30;9.00;;;5.65;;
71298;SDS011;59083;47.974;21.722;2022-08-02T16:06:32;11.48;;;5.85;;
71298;SDS011;59083;47.974;21.722;2022-08-02T16:09:34;8.45;;;6.25;;
71298;SDS011;59083;47.974;21.722;2022-08-02T16:12:36;8.73;;;6.17;;
71298;SDS011;59083;47.974;21.722;2022-08-02T16:15:37;9.80;;;6.18;;
71298;SDS011;59083;47.974;21.722;2022-08-02T16:18:39;8.95;;;6.28;;
71298;SDS011;59083;47.974;21.722;2022-08-02T16:21:40;10.00;;;5.95;;
71298;SDS011;59083;47.974;21.722;2022-08-02T16:24:41;10.45;;;7.32;;
71298;SDS011;59083;47.974;21.722;2022-08-02T16:27:43;10.33;;;6.60;;
71298;SDS011;59083;47.974;21.722;2022-08-02T16:30:44;8.38;;;6.00;;
71298;SDS011;59083;47.974;21.722;2022-08-02T16:33:46;9.82;;;6.00;;
71298;SDS011;59083;47.974;21.722;2022-08-02T16:36:47;10.07;;;6.12;;
71298;SDS011;59083;47.974;21.722;2022-08-02T16:39:48;9.57;;;6.50;;
71298;SDS011;59083;47.974;21.722;2022-08-02T16:42:49;8.63;;;6.30;;
71298;SDS011;59083;47.974;21.722;2022-08-02T16:45:50;9.65;;;6.10;;
71298;SDS011;59083;47.974;21.722;2022-08-02T16:48:52;9.77;;;6.43;;
71298;SDS011;59083;47.974;21.722;2022-08-02T16:51:53;9.88;;;6.40;;
71298;SDS011;59083;47.974;21.722;2022-08-02T16:54:54;9.30;;;6.47;;
71298;SDS011;59083;47.974;21.722;2022-08-02T16:57:56;9.80;;;6.57;;
71298;SDS011;59083;47.974;21.722;2022-08-02T17:00:58;12.73;;;6.70;;
71298;SDS011;59083;47.974;21.722;2022-08-02T17:03:59;9.38;;;6.78;;
71298;SDS011;59083;47.974;21.722;2022-08-02T17:07:00;9.90;;;6.30;;
71298;SDS011;59083;47.974;21.722;2022-08-02T17:10:03;9.55;;;6.82;;
71298;SDS011;59083;47.974;21.722;2022-08-02T17:13:06;12.83;;;6.17;;
71298;SDS011;59083;47.974;21.722;2022-08-02T17:16:08;9.23;;;6.53;;
71298;SDS011;59083;47.974;21.722;2022-08-02T17:19:09;10.18;;;6.90;;
71298;SDS011;59083;47.974;21.722;2022-08-02T17:22:11;10.70;;;7.35;;
71298;SDS011;59083;47.974;21.722;2022-08-02T17:25:12;10.30;;;7.10;;
71298;SDS011;59083;47.974;21.722;2022-08-02T17:28:15;19.10;;;10.97;;
71298;SDS011;59083;47.974;21.722;2022-08-02T17:31:17;10.13;;;6.97;;
71298;SDS011;59083;47.974;21.722;2022-08-02T17:34:18;12.95;;;7.32;;
71298;SDS011;59083;47.974;21.722;2022-08-02T17:37:19;9.38;;;6.85;;
71298;SDS011;59083;47.974;21.722;2022-08-02T17:40:21;12.82;;;8.63;;
71298;SDS011;59083;47.974;21.722;2022-08-02T17:43:22;10.47;;;6.80;;
71298;SDS011;59083;47.974;21.722;2022-08-02T17:46:23;9.88;;;6.85;;
71298;SDS011;59083;47.974;21.722;2022-08-02T17:49:24;9.93;;;6.62;;
71298;SDS011;59083;47.974;21.722;2022-08-02T17:52:26;8.95;;;6.37;;
71298;SDS011;59083;47.974;21.722;2022-08-02T17:55:27;10.35;;;5.95;;
71298;SDS011;59083;47.974;21.722;2022-08-02T17:58:29;9.90;;;6.10;;
71298;SDS011;59083;47.974;21.722;2022-08-02T18:01:30;7.93;;;5.65;;
71298;SDS011;59083;47.974;21.722;2022-08-02T18:04:31;8.25;;;5.60;;
71298;SDS011;59083;47.974;21.722;2022-08-02T18:07:34;7.97;;;5.53;;
71298;SDS011;59083;47.974;21.722;2022-08-02T18:10:35;8.23;;;5.62;;
71298;SDS011;59083;47.974;21.722;2022-08-02T18:13:36;9.17;;;5.80;;
71298;SDS011;59083;47.974;21.722;2022-08-02T18:16:38;8.95;;;5.97;;
71298;SDS011;59083;47.974;21.722;2022-08-02T18:19:39;9.07;;;5.57;;
71298;SDS011;59083;47.974;21.722;2022-08-02T18:22:40;10.63;;;5.72;;
71298;SDS011;59083;47.974;21.722;2022-08-02T18:25:42;7.50;;;5.20;;
71298;SDS011;59083;47.974;21.722;2022-08-02T18:28:43;7.83;;;5.63;;
71298;SDS011;59083;47.974;21.722;2022-08-02T18:31:45;8.63;;;5.03;;